Historyczne dane pomiarowe

Dodano dane terminowe – wersja testowa.

Dane z okresu 1951-2019

Wersja bazy: 1.34 [2019-03-16, lista zmian], aktualizacja planowana na 2019-04-15

Dane meteo z obszaru Polski uzyskane na podstawie danych udostępnionych przez Instytut Meteorologii i Gospodarki Wodnej – Państwowy Instytut Badawczy.

 

Wybierz Datę:    

       

TemperaturaWilgotnośćZachmurzenieWiatrCiśnienieWidzialnośćZjawiska
 Data    tng td wb rh cc ccl cl cm ch dir g1 g2 mslp ppp      
1999-06-20 00:00:00 15.1--- 14.4 14.796wxwxwxwx3wx--1019.0 994.5 0.0---wx
1999-06-20 01:00:00 14.9--- 14.1 14.495wxwxwxwx1wx--1018.6 994.1----wx
1999-06-20 02:00:00 14.9--- 13.9 14.394wxwxwxwx1wx--1018.0 993.5----wx
1999-06-20 03:00:00 14.9--- 13.7 14.293wxwxwx1wx--1018.2 993.7----wx
1999-06-20 04:00:00 12.3--- 11.2 11.793wxwxwx1wx--1018.1 993.3----wx
1999-06-20 05:00:00 13.4--- 12.5 12.995wxwxwx1wx--1018.0 993.3----wx
1999-06-20 06:00:00 16.2--- 14.1 14.987wxwxwxwxwx2wx--1017.8 993.4 0.0---wx
1999-06-20 07:00:00 17.8--- 14.4 15.780wxwxwxwxwx1wx--1017.7 993.4----wx
1999-06-20 08:00:00 18.4--- 14.0 15.775wxwxwxwx0wx--1017.5 993.3----wx
1999-06-20 09:00:00 19.6--- 13.5 15.968wxwxwxwx1wx--1016.9 992.8----wx
1999-06-20 10:00:00 20.2--- 13.5 16.165wxwxwxwxwx2wx--1016.4 992.3----wx
1999-06-20 11:00:00 21.0--- 14.2 16.865wxwxwxwx1wx--1015.8 991.8----wx
1999-06-20 12:00:00 21.4--- 13.4 16.560wxwxwx1wx--1014.8 990.9 0.0---wx
1999-06-20 13:00:00 22.0--- 13.6 16.859wxwxwx1wx--1013.8 990.0----wx
1999-06-20 14:00:00 22.2--- 13.6 16.958wxwxwxwx2wx--1013.1 989.3----wx
1999-06-20 15:00:00 22.2--- 13.6 16.958wxwxwxwxwx1wx--1012.4 988.6----wx
1999-06-20 16:00:00 22.3--- 13.5 16.958wxwxwxwx1wx--1011.9 988.1----wx
1999-06-20 17:00:00 22.2--- 14.0 17.160wxwxwxwx1wx--1011.3 987.5----wx
1999-06-20 18:00:00 21.8--- 14.8 17.464wxwxwx2wx--1011.1 987.3 0.0---wx
1999-06-20 19:00:00 20.2--- 15.1 17.073wxwxwxwx0wx--1010.9 987.0----wx
1999-06-20 20:00:00 19.0--- 15.5 16.880wxwxwxwx1wx--1011.0 987.0----wx
1999-06-20 21:00:00 17.6--- 15.7 16.489wxwxwxwx1wx--1011.0 986.9----wx
1999-06-20 22:00:00 17.2--- 15.6 16.290wxwxwx1wx--1010.7 986.5----wx
1999-06-20 23:00:00 15.2--- 14.2 14.694wxwxwx0wx--1010.2 985.9----wx

 

Źródłem pochodzenia danych jest Instytut Meteorologii i Gospodarki Wodnej – Państwowy Instytut Badawczy. Dane Instytutu Meteorologii i Gospodarki Wodnej – Państwowego Instytutu Badawczego zostały przetworzone.

Dane źródłowe można odnaleźć na stronie https://dane.imgw.pl